createdAt,value
2022-09-28T00:02:13.838Z,97.00
2022-09-28T00:04:40.690Z,97.20
2022-09-28T00:07:08.387Z,97.00
2022-09-28T00:09:35.126Z,97.00
2022-09-28T00:12:02.237Z,97.00
2022-09-28T00:14:29.760Z,97.10
2022-09-28T00:16:56.525Z,97.10
2022-09-28T00:19:23.683Z,97.10
2022-09-28T00:21:50.549Z,97.10
2022-09-28T00:24:18.762Z,97.10
2022-09-28T00:26:54.212Z,97.10
2022-09-28T00:29:25.471Z,97.10
2022-09-28T00:31:53.335Z,97.10
2022-09-28T00:34:20.402Z,97.10
2022-09-28T00:36:47.877Z,97.10
2022-09-28T00:39:15.556Z,97.10
2022-09-28T00:41:42.562Z,97.20
2022-09-28T00:44:24.869Z,97.20
2022-09-28T00:47:03.863Z,97.20
2022-09-28T00:49:44.669Z,97.20
2022-09-28T00:52:28.110Z,97.10
2022-09-28T00:54:55.387Z,97.20
2022-09-28T00:57:22.814Z,97.20
2022-09-28T00:59:49.835Z,97.20
2022-09-28T01:02:16.724Z,97.20
2022-09-28T01:04:43.519Z,97.30
2022-09-28T01:07:10.686Z,97.20
2022-09-28T01:09:39.105Z,97.30
2022-09-28T01:12:05.983Z,97.30
2022-09-28T01:14:32.808Z,97.30
2022-09-28T01:17:16.448Z,97.30
2022-09-28T01:20:06.998Z,97.30
2022-09-28T01:22:37.076Z,97.30
2022-09-28T01:25:29.903Z,97.30
2022-09-28T01:28:14.378Z,97.30
2022-09-28T01:30:42.457Z,97.30
2022-09-28T01:33:14.491Z,97.30
2022-09-28T01:35:53.453Z,97.30
2022-09-28T01:38:22.666Z,97.40
2022-09-28T01:40:49.500Z,97.40
2022-09-28T01:43:29.216Z,97.40
2022-09-28T01:45:59.011Z,97.50
2022-09-28T01:48:58.267Z,97.50
2022-09-28T01:51:51.771Z,97.50
2022-09-28T01:54:23.464Z,97.50
2022-09-28T01:56:55.622Z,97.50
2022-09-28T01:59:24.834Z,97.50
2022-09-28T02:02:06.230Z,97.50
2022-09-28T02:04:36.457Z,97.60
2022-09-28T02:07:46.495Z,97.60
2022-09-28T02:10:16.025Z,97.60
2022-09-28T02:12:54.093Z,97.60
2022-09-28T02:15:30.572Z,97.60
2022-09-28T02:17:57.333Z,97.60
2022-09-28T02:20:24.063Z,97.60
2022-09-28T02:22:51.918Z,97.60
2022-09-28T02:25:49.837Z,97.60
2022-09-28T02:28:16.639Z,97.60
2022-09-28T02:30:44.069Z,97.60
2022-09-28T02:33:23.731Z,97.60
2022-09-28T02:35:50.554Z,97.70
2022-09-28T02:38:17.334Z,97.70
2022-09-28T02:40:56.106Z,97.70
2022-09-28T02:43:24.847Z,97.70
2022-09-28T02:46:02.218Z,97.70
2022-09-28T02:49:04.977Z,97.70
2022-09-28T02:52:00.792Z,97.70
2022-09-28T02:54:50.625Z,97.80
2022-09-28T02:57:39.047Z,97.60
2022-09-28T03:00:16.745Z,97.60
2022-09-28T03:03:05.206Z,97.70
2022-09-28T03:05:37.974Z,97.70
2022-09-28T03:08:09.642Z,97.70
2022-09-28T03:10:45.029Z,98.00
2022-09-28T03:13:12.456Z,97.80
2022-09-28T03:15:39.269Z,97.80
2022-09-28T03:18:06.188Z,97.90
2022-09-28T03:20:33.547Z,97.90
2022-09-28T03:23:23.309Z,97.80
2022-09-28T03:25:47.694Z,97.80
2022-09-28T03:28:14.400Z,97.70
2022-09-28T03:30:41.666Z,97.70
2022-09-28T03:33:08.406Z,97.70
2022-09-28T03:35:35.281Z,97.80
2022-09-28T03:38:02.050Z,97.80
2022-09-28T03:40:28.782Z,97.80
2022-09-28T03:42:55.547Z,97.80
2022-09-28T03:45:22.282Z,98.10
2022-09-28T03:47:49.079Z,97.90
2022-09-28T03:50:16.157Z,97.90
2022-09-28T03:52:42.931Z,97.90
2022-09-28T03:55:09.996Z,98.00
2022-09-28T03:57:37.136Z,98.00
2022-09-28T04:00:07.350Z,98.00
2022-09-28T04:02:34.865Z,98.00
2022-09-28T04:05:01.961Z,98.00
2022-09-28T04:07:31.038Z,98.10
2022-09-28T04:09:58.291Z,98.10
2022-09-28T04:12:24.991Z,98.00
2022-09-28T04:14:51.995Z,98.00
2022-09-28T04:17:18.797Z,98.10
2022-09-28T04:19:45.498Z,98.00
2022-09-28T04:22:12.293Z,98.10
2022-09-28T04:24:39.712Z,98.00
2022-09-28T04:27:24.955Z,98.00
2022-09-28T04:29:51.702Z,98.00
2022-09-28T04:32:18.486Z,98.00
2022-09-28T04:34:45.196Z,98.00
2022-09-28T04:37:11.946Z,98.00
2022-09-28T04:39:38.756Z,97.90
2022-09-28T04:42:05.678Z,97.90
2022-09-28T04:44:32.524Z,97.90
2022-09-28T04:47:02.973Z,97.90
2022-09-28T04:49:31.860Z,97.90
2022-09-28T04:51:58.589Z,98.00
2022-09-28T04:54:25.312Z,97.90
2022-09-28T04:56:53.385Z,98.00
2022-09-28T04:59:20.142Z,98.00
2022-09-28T05:01:47.586Z,98.00
2022-09-28T05:04:14.263Z,98.00
2022-09-28T05:06:41.064Z,98.00
2022-09-28T05:09:09.386Z,97.90
2022-09-28T05:11:36.165Z,98.00
2022-09-28T05:14:03.059Z,98.10
2022-09-28T05:16:31.047Z,98.20
2022-09-28T05:18:57.960Z,98.20
2022-09-28T05:21:26.377Z,98.20
2022-09-28T05:23:56.096Z,98.20
2022-09-28T05:26:23.170Z,98.30
2022-09-28T05:28:50.821Z,98.30
2022-09-28T05:31:17.667Z,98.30
2022-09-28T05:33:44.542Z,98.30
2022-09-28T05:36:11.399Z,98.60
2022-09-28T05:38:38.198Z,98.30
2022-09-28T05:41:06.730Z,98.30
2022-09-28T05:43:33.846Z,98.30
2022-09-28T05:46:00.702Z,98.40
2022-09-28T05:48:28.434Z,98.40
2022-09-28T05:50:55.346Z,98.40
2022-09-28T05:53:22.667Z,98.40
2022-09-28T05:55:52.260Z,98.40
2022-09-28T05:58:19.184Z,98.40
2022-09-28T06:00:45.994Z,98.40
2022-09-28T06:03:27.617Z,98.50
2022-09-28T06:05:54.577Z,98.80
2022-09-28T06:08:21.432Z,98.50
2022-09-28T06:10:48.173Z,98.50
2022-09-28T06:13:15.042Z,98.50
2022-09-28T06:15:42.275Z,98.60
2022-09-28T06:18:15.710Z,98.50
2022-09-28T06:20:42.831Z,98.60
2022-09-28T06:23:11.344Z,98.60
2022-09-28T06:25:38.465Z,98.60
2022-09-28T06:28:07.302Z,98.60
2022-09-28T06:30:34.973Z,98.70
2022-09-28T06:33:02.276Z,98.70
2022-09-28T06:35:30.508Z,98.70
2022-09-28T06:38:00.824Z,98.70
2022-09-28T06:40:27.794Z,98.80
2022-09-28T06:43:01.935Z,98.80
2022-09-28T06:45:29.498Z,98.80
2022-09-28T06:47:57.557Z,98.80
2022-09-28T06:50:29.185Z,98.80
2022-09-28T06:52:57.163Z,98.90
2022-09-28T06:55:24.141Z,98.90
2022-09-28T06:58:00.515Z,98.90
2022-09-28T07:00:34.054Z,98.90
2022-09-28T07:03:02.276Z,99.00
2022-09-28T07:05:29.578Z,99.00
2022-09-28T07:07:56.718Z,99.10
2022-09-28T07:10:24.568Z,99.10
2022-09-28T07:12:51.950Z,99.10
2022-09-28T07:15:19.119Z,99.10
2022-09-28T07:17:58.961Z,99.20
2022-09-28T07:20:27.651Z,99.20
2022-09-28T07:23:05.595Z,99.30
2022-09-28T07:25:44.413Z,99.40
2022-09-28T07:28:11.379Z,99.40
2022-09-28T07:30:38.449Z,99.40
2022-09-28T07:33:08.928Z,99.50
2022-09-28T07:35:35.844Z,99.50
2022-09-28T07:38:04.124Z,99.50
2022-09-28T07:40:49.993Z,99.60
2022-09-28T07:43:20.579Z,99.60
2022-09-28T07:45:52.581Z,99.60
2022-09-28T07:48:19.584Z,99.60
2022-09-28T07:50:51.853Z,99.60
2022-09-28T07:53:19.391Z,99.60
2022-09-28T07:55:53.010Z,99.60
2022-09-28T07:58:20.689Z,99.70
2022-09-28T08:00:48.823Z,99.70
2022-09-28T08:03:16.563Z,99.70
2022-09-28T08:05:43.428Z,99.70
2022-09-28T08:08:10.451Z,99.70
2022-09-28T08:10:37.864Z,99.70
2022-09-28T08:13:06.538Z,99.70
2022-09-28T08:15:36.922Z,99.70
2022-09-28T08:18:04.520Z,99.70
2022-09-28T08:20:51.632Z,99.60
2022-09-28T08:23:22.920Z,99.50
2022-09-28T08:25:50.574Z,99.50
2022-09-28T08:28:17.758Z,99.40
2022-09-28T08:30:48.104Z,99.30
2022-09-28T08:33:15.830Z,99.40
2022-09-28T08:35:42.627Z,99.60
2022-09-28T08:38:09.495Z,99.70
2022-09-28T08:41:04.693Z,99.70
2022-09-28T08:43:56.833Z,99.40
2022-09-28T08:46:27.068Z,99.40
2022-09-28T08:49:23.863Z,99.00
2022-09-28T08:51:52.634Z,98.80
2022-09-28T08:54:38.802Z,98.70
2022-09-28T08:57:14.571Z,98.60
2022-09-28T08:59:41.402Z,98.60
2022-09-28T09:02:17.859Z,98.70
2022-09-28T09:04:44.676Z,98.50
2022-09-28T09:07:37.651Z,98.40
2022-09-28T09:10:28.675Z,98.20
2022-09-28T09:13:11.746Z,98.10
2022-09-28T09:15:41.241Z,98.00
2022-09-28T09:18:47.379Z,97.80
2022-09-28T09:21:43.858Z,97.60
2022-09-28T09:24:17.245Z,97.40
2022-09-28T09:26:44.197Z,97.30
2022-09-28T09:29:29.188Z,97.40
2022-09-28T09:32:17.877Z,97.30
2022-09-28T09:35:05.547Z,97.10
2022-09-28T09:37:47.772Z,96.80
2022-09-28T09:40:33.303Z,96.90
2022-09-28T09:43:29.366Z,96.80
2022-09-28T09:46:36.556Z,96.60
2022-09-28T09:49:24.509Z,96.70
2022-09-28T09:52:15.619Z,96.50
2022-09-28T09:54:57.712Z,96.20
2022-09-28T09:57:34.620Z,96.40
2022-09-28T10:00:02.156Z,96.20
2022-09-28T10:02:30.420Z,96.10
2022-09-28T10:05:04.068Z,95.70
2022-09-28T10:07:43.468Z,95.60
2022-09-28T10:10:12.929Z,95.40
2022-09-28T10:12:39.662Z,95.40
2022-09-28T10:15:32.968Z,95.30
2022-09-28T10:18:06.714Z,94.90
2022-09-28T10:20:37.104Z,94.70
2022-09-28T10:23:04.985Z,94.50
2022-09-28T10:25:33.569Z,94.30
2022-09-28T10:28:00.401Z,94.30
2022-09-28T10:30:27.253Z,94.20
2022-09-28T10:32:59.148Z,94.10
2022-09-28T10:35:27.441Z,94.00
2022-09-28T10:38:05.796Z,93.80
2022-09-28T10:40:44.581Z,93.40
2022-09-28T10:43:30.739Z,93.10
2022-09-28T10:46:24.171Z,92.70
2022-09-28T10:48:56.408Z,92.40
2022-09-28T10:51:43.630Z,92.30
2022-09-28T10:54:20.231Z,91.70
2022-09-28T10:56:47.182Z,91.40
2022-09-28T10:59:43.379Z,91.10
2022-09-28T11:02:17.174Z,90.40
2022-09-28T11:04:44.492Z,90.50
2022-09-28T11:07:18.913Z,90.30
2022-09-28T11:09:48.697Z,90.00
2022-09-28T11:12:26.245Z,89.80
2022-09-28T11:15:02.894Z,89.90
2022-09-28T11:17:40.485Z,89.70
2022-09-28T11:20:30.475Z,89.60
2022-09-28T11:23:29.444Z,89.10
2022-09-28T11:25:58.384Z,88.50
2022-09-28T11:28:31.427Z,88.30
2022-09-28T11:30:58.202Z,87.50
2022-09-28T11:33:34.528Z,87.20
2022-09-28T11:36:13.645Z,86.60
2022-09-28T11:39:17.909Z,86.10
2022-09-28T11:42:23.536Z,85.90
2022-09-28T11:44:50.322Z,85.60
2022-09-28T11:47:29.067Z,85.70
2022-09-28T11:50:22.996Z,85.30
2022-09-28T11:53:02.887Z,84.90
2022-09-28T11:55:38.147Z,85.10
2022-09-28T11:58:25.047Z,84.90
2022-09-28T12:00:56.963Z,84.50
2022-09-28T12:03:28.940Z,84.60
2022-09-28T12:06:01.024Z,84.40
2022-09-28T12:08:35.734Z,83.90
2022-09-28T12:11:15.966Z,82.90
2022-09-28T12:13:45.296Z,82.00
2022-09-28T12:16:45.734Z,81.90
2022-09-28T12:19:18.731Z,81.60
2022-09-28T12:21:54.064Z,81.70
2022-09-28T12:24:26.021Z,81.80
2022-09-28T12:27:11.457Z,81.60
2022-09-28T12:30:02.356Z,81.40
2022-09-28T12:32:31.805Z,81.60
2022-09-28T12:34:58.664Z,81.40
2022-09-28T12:38:08.866Z,81.20
2022-09-28T12:40:56.214Z,80.40
2022-09-28T12:44:00.575Z,80.00
2022-09-28T12:46:49.483Z,79.60
2022-09-28T12:52:29.202Z,79.80
2022-09-28T12:55:17.378Z,79.80
2022-09-28T12:58:27.228Z,79.40
2022-09-28T13:01:04.119Z,79.10
2022-09-28T13:03:35.067Z,78.80
2022-09-28T13:06:16.667Z,78.70
2022-09-28T13:09:01.966Z,78.10
2022-09-28T13:11:51.392Z,78.20
2022-09-28T13:14:55.514Z,78.70
2022-09-28T13:17:45.090Z,77.50
2022-09-28T13:20:32.170Z,76.80
2022-09-28T13:23:21.431Z,75.90
2022-09-28T13:25:57.207Z,75.10
2022-09-28T13:28:27.191Z,73.40
2022-09-28T13:30:55.247Z,72.60
2022-09-28T13:33:30.666Z,71.90
2022-09-28T13:35:57.434Z,71.40
2022-09-28T13:38:25.386Z,71.20
2022-09-28T13:41:04.461Z,71.30
2022-09-28T13:44:00.303Z,71.50
2022-09-28T13:47:11.634Z,71.80
2022-09-28T13:50:07.679Z,72.10
2022-09-28T13:52:57.772Z,72.50
2022-09-28T13:55:50.610Z,72.90
2022-09-28T13:58:53.005Z,73.00
2022-09-28T14:01:23.310Z,73.10
2022-09-28T14:04:14.878Z,72.80
2022-09-28T14:06:47.516Z,72.20
2022-09-28T14:09:16.435Z,72.20
2022-09-28T14:11:53.571Z,71.90
2022-09-28T14:14:25.858Z,71.90
2022-09-28T14:17:16.743Z,71.50
2022-09-28T14:19:49.383Z,71.30
2022-09-28T14:22:36.994Z,71.30
2022-09-28T14:25:06.533Z,71.10
2022-09-28T14:28:10.873Z,71.20
2022-09-28T14:30:43.852Z,71.00
2022-09-28T14:33:39.342Z,70.90
2022-09-28T14:36:43.517Z,71.00
2022-09-28T14:39:49.828Z,70.50
2022-09-28T14:42:24.266Z,70.50
2022-09-28T14:45:06.372Z,70.50
2022-09-28T14:47:38.379Z,70.40
2022-09-28T14:50:24.139Z,70.30
2022-09-28T14:52:57.407Z,70.00
2022-09-28T14:55:27.969Z,70.30
2022-09-28T14:57:58.641Z,70.40
2022-09-28T15:00:29.388Z,70.90
2022-09-28T15:02:59.592Z,70.30
2022-09-28T15:05:49.698Z,70.30
2022-09-28T15:08:20.294Z,70.70
2022-09-28T15:10:52.187Z,70.10
2022-09-28T15:13:26.676Z,70.10
2022-09-28T15:16:13.676Z,69.80
2022-09-28T15:19:03.992Z,70.10
2022-09-28T15:21:50.716Z,70.10
2022-09-28T15:24:31.825Z,70.70
2022-09-28T15:26:59.774Z,70.10
2022-09-28T15:29:33.842Z,70.30
2022-09-28T15:32:00.689Z,70.30
2022-09-28T15:35:07.064Z,70.70
2022-09-28T15:37:39.643Z,70.70
2022-09-28T15:40:15.400Z,70.80
2022-09-28T15:42:42.390Z,70.60
2022-09-28T15:45:26.742Z,70.70
2022-09-28T15:48:17.448Z,70.70
2022-09-28T15:50:57.003Z,70.70
2022-09-28T15:53:23.917Z,70.70
2022-09-28T15:55:51.307Z,70.80
2022-09-28T15:58:19.761Z,70.80
2022-09-28T16:00:48.055Z,70.80
2022-09-28T16:03:24.968Z,70.80
2022-09-28T16:05:57.977Z,71.00
2022-09-28T16:08:37.068Z,71.00
2022-09-28T16:11:17.416Z,70.90
2022-09-28T16:13:52.902Z,71.10
2022-09-28T16:16:19.805Z,70.80
2022-09-28T16:18:49.652Z,70.30
2022-09-28T16:21:25.450Z,69.80
2022-09-28T16:23:53.211Z,69.40
2022-09-28T16:26:33.527Z,69.40
2022-09-28T16:29:01.390Z,69.20
2022-09-28T16:31:30.232Z,69.30
2022-09-28T16:34:10.846Z,69.30
2022-09-28T16:36:43.839Z,69.00
2022-09-28T16:39:16.951Z,68.80
2022-09-28T16:41:49.404Z,69.10
2022-09-28T16:44:19.779Z,69.10
2022-09-28T16:46:46.693Z,69.30
2022-09-28T16:49:18.825Z,69.20
2022-09-28T16:51:47.004Z,69.00
2022-09-28T16:54:37.498Z,68.90
2022-09-28T16:57:05.296Z,68.50
2022-09-28T16:59:32.207Z,68.30
2022-09-28T17:01:59.294Z,68.10
2022-09-28T17:04:26.322Z,67.90
2022-09-28T17:06:54.355Z,67.80
2022-09-28T17:09:21.876Z,68.00
2022-09-28T17:11:48.823Z,68.30
2022-09-28T17:14:15.635Z,68.60
2022-09-28T17:17:06.935Z,68.90
2022-09-28T17:19:31.492Z,69.20
2022-09-28T17:21:58.720Z,69.60
2022-09-28T17:24:25.523Z,70.00
2022-09-28T17:26:52.443Z,70.40
2022-09-28T17:29:19.357Z,70.70
2022-09-28T17:31:46.739Z,71.00
2022-09-28T17:34:19.495Z,71.20
2022-09-28T17:36:46.656Z,71.40
2022-09-28T17:39:14.377Z,71.60
2022-09-28T17:41:41.232Z,71.90
2022-09-28T17:44:08.158Z,72.20
2022-09-28T17:46:41.778Z,72.50
2022-09-28T17:49:10.317Z,72.80
2022-09-28T17:51:39.832Z,72.90
2022-09-28T17:54:08.098Z,73.30
2022-09-28T17:56:35.314Z,73.60
2022-09-28T17:59:04.850Z,74.00
2022-09-28T18:01:34.502Z,74.20
2022-09-28T18:04:03.080Z,74.50
2022-09-28T18:06:30.053Z,74.80
2022-09-28T18:08:56.949Z,75.00
2022-09-28T18:11:23.743Z,75.30
2022-09-28T18:13:50.523Z,75.70
2022-09-28T18:16:19.625Z,76.00
2022-09-28T18:18:47.508Z,76.30
2022-09-28T18:21:14.391Z,76.50
2022-09-28T18:23:41.155Z,76.90
2022-09-28T18:26:12.060Z,77.20
2022-09-28T18:28:39.183Z,77.50
2022-09-28T18:31:10.421Z,77.70
2022-09-28T18:33:50.299Z,78.10
2022-09-28T18:36:17.075Z,78.30
2022-09-28T18:38:43.755Z,78.50
2022-09-28T18:41:31.852Z,78.80
2022-09-28T18:44:02.609Z,79.10
2022-09-28T18:46:51.725Z,79.40
2022-09-28T18:49:18.567Z,79.60
2022-09-28T18:51:45.611Z,79.80
2022-09-28T18:54:12.371Z,80.00
2022-09-28T18:56:39.088Z,80.30
2022-09-28T18:59:11.126Z,80.60
2022-09-28T19:01:38.980Z,80.90
2022-09-28T19:04:07.706Z,81.10
2022-09-28T19:06:34.746Z,81.40
2022-09-28T19:09:01.638Z,81.60
2022-09-28T19:11:28.798Z,81.80
2022-09-28T19:13:55.683Z,82.00
2022-09-28T19:16:24.649Z,82.20
2022-09-28T19:18:53.455Z,82.40
2022-09-28T19:21:20.386Z,82.50
2022-09-28T19:23:49.784Z,82.70
2022-09-28T19:26:21.610Z,82.90
2022-09-28T19:28:49.039Z,83.10
2022-09-28T19:31:16.013Z,83.30
2022-09-28T19:33:43.825Z,83.50
2022-09-28T19:36:15.369Z,83.60
2022-09-28T19:38:42.523Z,83.90
2022-09-28T19:41:39.400Z,83.90
2022-09-28T19:44:15.651Z,84.20
2022-09-28T19:46:42.985Z,84.20
2022-09-28T19:49:14.865Z,84.30
2022-09-28T19:51:56.559Z,84.50
2022-09-28T19:54:36.281Z,84.60
2022-09-28T19:57:08.034Z,84.70
2022-09-28T19:59:36.620Z,84.80
2022-09-28T20:02:04.602Z,85.00
2022-09-28T20:04:31.498Z,85.10
2022-09-28T20:07:01.633Z,85.30
2022-09-28T20:09:28.703Z,85.50
2022-09-28T20:11:55.540Z,85.60
2022-09-28T20:14:24.567Z,85.70
2022-09-28T20:16:53.356Z,85.90
2022-09-28T20:19:21.845Z,86.10
2022-09-28T20:21:49.136Z,86.20
2022-09-28T20:24:18.951Z,86.30
2022-09-28T20:26:46.176Z,86.40
2022-09-28T20:29:16.214Z,86.50
2022-09-28T20:31:43.182Z,86.70
2022-09-28T20:34:10.605Z,86.70
2022-09-28T20:36:37.646Z,86.90
2022-09-28T20:39:04.391Z,87.00
2022-09-28T20:41:36.740Z,87.70
2022-09-28T20:44:05.932Z,87.30
2022-09-28T20:46:36.902Z,87.40
2022-09-28T20:49:04.703Z,87.50
2022-09-28T20:51:31.560Z,87.60
2022-09-28T20:53:58.973Z,87.70
2022-09-28T20:56:27.341Z,87.90
2022-09-28T20:58:54.610Z,88.00
2022-09-28T21:01:29.451Z,88.10
2022-09-28T21:04:00.517Z,88.30
2022-09-28T21:06:28.781Z,88.30
2022-09-28T21:08:55.620Z,88.50
2022-09-28T21:11:23.502Z,88.50
2022-09-28T21:14:01.263Z,88.60
2022-09-28T21:16:29.445Z,88.80
2022-09-28T21:18:56.488Z,88.80
2022-09-28T21:21:23.747Z,88.80
2022-09-28T21:23:56.925Z,88.90
2022-09-28T21:26:25.459Z,89.00
2022-09-28T21:28:53.920Z,89.10
2022-09-28T21:31:24.771Z,89.20
2022-09-28T21:33:54.494Z,89.30
2022-09-28T21:36:21.302Z,89.40
2022-09-28T21:38:48.292Z,89.50
2022-09-28T21:41:15.391Z,89.60
2022-09-28T21:43:42.133Z,89.70
2022-09-28T21:46:10.075Z,89.70
2022-09-28T21:48:37.148Z,89.80
2022-09-28T21:51:09.083Z,89.90
2022-09-28T21:53:37.516Z,90.00
2022-09-28T21:56:05.764Z,90.00
2022-09-28T21:58:33.977Z,90.00
2022-09-28T22:01:01.883Z,90.00
2022-09-28T22:03:29.588Z,90.10
2022-09-28T22:05:56.312Z,90.10
2022-09-28T22:08:23.739Z,90.20
2022-09-28T22:11:10.589Z,90.20
2022-09-28T22:13:40.642Z,90.30
2022-09-28T22:16:08.254Z,90.30
2022-09-28T22:18:35.122Z,90.30
2022-09-28T22:21:20.796Z,90.30
2022-09-28T22:23:47.893Z,90.30
2022-09-28T22:26:20.136Z,90.30
2022-09-28T22:28:54.543Z,90.40
2022-09-28T22:31:32.177Z,90.40
2022-09-28T22:34:02.088Z,90.40
2022-09-28T22:36:32.156Z,90.40
2022-09-28T22:38:59.588Z,90.40
2022-09-28T22:41:26.479Z,90.40
2022-09-28T22:43:53.689Z,90.50
2022-09-28T22:46:28.054Z,90.60
2022-09-28T22:48:58.585Z,90.50
2022-09-28T22:51:28.208Z,90.50
2022-09-28T22:53:56.566Z,90.50
2022-09-28T22:56:23.442Z,90.50
2022-09-28T22:58:50.250Z,90.50
2022-09-28T23:01:19.337Z,90.50
2022-09-28T23:03:46.560Z,90.60
2022-09-28T23:06:16.043Z,90.60
2022-09-28T23:08:43.157Z,90.60
2022-09-28T23:11:09.939Z,90.60
2022-09-28T23:13:37.637Z,90.60
2022-09-28T23:16:05.972Z,90.60
2022-09-28T23:18:34.149Z,90.60
2022-09-28T23:21:09.932Z,90.60
2022-09-28T23:23:36.685Z,90.90
2022-09-28T23:26:16.412Z,90.60
2022-09-28T23:28:43.344Z,90.70
2022-09-28T23:31:18.255Z,90.70
2022-09-28T23:33:45.354Z,90.70
2022-09-28T23:36:12.155Z,90.70
2022-09-28T23:38:39.044Z,90.70
2022-09-28T23:41:05.949Z,90.70
2022-09-28T23:43:32.881Z,90.70
2022-09-28T23:45:59.742Z,90.80
2022-09-28T23:48:26.585Z,90.80
2022-09-28T23:50:53.437Z,90.80
2022-09-28T23:53:20.170Z,90.90
2022-09-28T23:55:46.944Z,90.90
2022-09-28T23:58:13.788Z,90.90
